sensor_id;sensor_type;location;lat;lon;timestamp;temperature;humidity
27940;DHT22;15275;51.716;14.324;2023-02-03T00:01:08;4.30;84.40
27940;DHT22;15275;51.716;14.324;2023-02-03T00:03:34;4.30;84.70
27940;DHT22;15275;51.716;14.324;2023-02-03T00:06:01;4.40;84.90
27940;DHT22;15275;51.716;14.324;2023-02-03T00:08:28;4.40;85.10
27940;DHT22;15275;51.716;14.324;2023-02-03T00:10:54;4.50;85.20
27940;DHT22;15275;51.716;14.324;2023-02-03T00:13:20;4.50;85.40
27940;DHT22;15275;51.716;14.324;2023-02-03T00:15:46;4.60;85.50
27940;DHT22;15275;51.716;14.324;2023-02-03T00:18:11;4.60;85.60
27940;DHT22;15275;51.716;14.324;2023-02-03T00:20:37;4.70;85.70
27940;DHT22;15275;51.716;14.324;2023-02-03T00:23:08;4.80;85.80
27940;DHT22;15275;51.716;14.324;2023-02-03T00:25:35;4.80;85.90
27940;DHT22;15275;51.716;14.324;2023-02-03T00:28:02;4.90;85.90
27940;DHT22;15275;51.716;14.324;2023-02-03T00:30:28;5.00;85.80
27940;DHT22;15275;51.716;14.324;2023-02-03T00:32:54;5.00;85.80
27940;DHT22;15275;51.716;14.324;2023-02-03T00:35:20;5.00;85.80
27940;DHT22;15275;51.716;14.324;2023-02-03T00:37:54;5.10;85.70
27940;DHT22;15275;51.716;14.324;2023-02-03T00:40:22;5.20;85.80
27940;DHT22;15275;51.716;14.324;2023-02-03T00:42:49;5.20;85.70
27940;DHT22;15275;51.716;14.324;2023-02-03T00:45:15;5.30;85.70
27940;DHT22;15275;51.716;14.324;2023-02-03T00:47:41;5.30;85.80
27940;DHT22;15275;51.716;14.324;2023-02-03T00:50:08;5.30;85.70
27940;DHT22;15275;51.716;14.324;2023-02-03T00:52:34;5.40;85.70
27940;DHT22;15275;51.716;14.324;2023-02-03T00:55:00;5.40;85.70
27940;DHT22;15275;51.716;14.324;2023-02-03T00:57:26;5.50;85.70
27940;DHT22;15275;51.716;14.324;2023-02-03T00:59:53;5.50;85.70
27940;DHT22;15275;51.716;14.324;2023-02-03T01:02:19;5.50;85.70
27940;DHT22;15275;51.716;14.324;2023-02-03T01:04:45;5.50;85.70
27940;DHT22;15275;51.716;14.324;2023-02-03T01:07:11;5.60;85.60
27940;DHT22;15275;51.716;14.324;2023-02-03T01:09:37;5.60;85.60
27940;DHT22;15275;51.716;14.324;2023-02-03T01:12:03;5.60;85.60
27940;DHT22;15275;51.716;14.324;2023-02-03T01:14:30;5.70;85.60
27940;DHT22;15275;51.716;14.324;2023-02-03T01:16:56;5.70;85.50
27940;DHT22;15275;51.716;14.324;2023-02-03T01:19:22;5.70;85.50
27940;DHT22;15275;51.716;14.324;2023-02-03T01:21:48;5.70;85.60
27940;DHT22;15275;51.716;14.324;2023-02-03T01:24:14;5.70;85.50
27940;DHT22;15275;51.716;14.324;2023-02-03T01:26:40;5.70;85.50
27940;DHT22;15275;51.716;14.324;2023-02-03T01:29:07;5.80;85.60
27940;DHT22;15275;51.716;14.324;2023-02-03T01:31:39;5.80;85.50
27940;DHT22;15275;51.716;14.324;2023-02-03T01:34:12;5.90;85.50
27940;DHT22;15275;51.716;14.324;2023-02-03T01:36:38;5.90;85.30
27940;DHT22;15275;51.716;14.324;2023-02-03T01:39:05;5.90;85.40
27940;DHT22;15275;51.716;14.324;2023-02-03T01:41:36;5.90;85.40
27940;DHT22;15275;51.716;14.324;2023-02-03T01:47:05;5.90;85.30
27940;DHT22;15275;51.716;14.324;2023-02-03T01:49:38;6.00;85.30
27940;DHT22;15275;51.716;14.324;2023-02-03T01:52:07;6.00;85.40
27940;DHT22;15275;51.716;14.324;2023-02-03T01:54:36;6.00;85.40
27940;DHT22;15275;51.716;14.324;2023-02-03T02:00:05;6.10;85.40
27940;DHT22;15275;51.716;14.324;2023-02-03T02:02:32;6.10;85.40
27940;DHT22;15275;51.716;14.324;2023-02-03T02:06:01;6.10;85.40
27940;DHT22;15275;51.716;14.324;2023-02-03T02:08:13;6.10;85.20
27940;DHT22;15275;51.716;14.324;2023-02-03T02:10:40;6.10;85.20
27940;DHT22;15275;51.716;14.324;2023-02-03T02:13:07;6.20;85.20
27940;DHT22;15275;51.716;14.324;2023-02-03T02:18:49;6.20;85.10
27940;DHT22;15275;51.716;14.324;2023-02-03T02:29:53;6.20;85.20
27940;DHT22;15275;51.716;14.324;2023-02-03T02:35:46;6.20;85.20
27940;DHT22;15275;51.716;14.324;2023-02-03T02:38:47;6.20;85.20
27940;DHT22;15275;51.716;14.324;2023-02-03T02:44:25;6.30;85.20
27940;DHT22;15275;51.716;14.324;2023-02-03T02:47:05;6.20;85.10
27940;DHT22;15275;51.716;14.324;2023-02-03T02:52:16;6.20;85.10
27940;DHT22;15275;51.716;14.324;2023-02-03T02:54:46;6.20;85.10
27940;DHT22;15275;51.716;14.324;2023-02-03T02:57:18;6.20;85.20
27940;DHT22;15275;51.716;14.324;2023-02-03T02:59:46;6.20;85.10
27940;DHT22;15275;51.716;14.324;2023-02-03T03:02:12;6.20;85.10
27940;DHT22;15275;51.716;14.324;2023-02-03T03:04:39;6.20;85.00
27940;DHT22;15275;51.716;14.324;2023-02-03T03:07:09;6.20;85.00
27940;DHT22;15275;51.716;14.324;2023-02-03T03:09:51;6.20;85.10
27940;DHT22;15275;51.716;14.324;2023-02-03T03:12:28;6.20;85.00
27940;DHT22;15275;51.716;14.324;2023-02-03T03:15:04;6.10;85.10
27940;DHT22;15275;51.716;14.324;2023-02-03T03:17:42;6.10;85.10
27940;DHT22;15275;51.716;14.324;2023-02-03T03:20:19;6.10;85.10
27940;DHT22;15275;51.716;14.324;2023-02-03T03:22:55;6.10;85.10
27940;DHT22;15275;51.716;14.324;2023-02-03T03:25:34;6.10;85.10
27940;DHT22;15275;51.716;14.324;2023-02-03T03:28:09;6.10;85.10
27940;DHT22;15275;51.716;14.324;2023-02-03T03:30:39;6.10;85.00
27940;DHT22;15275;51.716;14.324;2023-02-03T03:33:06;6.10;85.00
27940;DHT22;15275;51.716;14.324;2023-02-03T03:35:47;6.10;85.10
27940;DHT22;15275;51.716;14.324;2023-02-03T03:38:25;6.10;85.10
27940;DHT22;15275;51.716;14.324;2023-02-03T03:41:10;6.00;85.10
27940;DHT22;15275;51.716;14.324;2023-02-03T03:43:43;6.00;85.10
27940;DHT22;15275;51.716;14.324;2023-02-03T03:46:16;6.00;85.20
27940;DHT22;15275;51.716;14.324;2023-02-03T03:51:39;6.00;85.40
27940;DHT22;15275;51.716;14.324;2023-02-03T03:54:11;6.00;85.40
27940;DHT22;15275;51.716;14.324;2023-02-03T03:57:10;6.10;85.40
27940;DHT22;15275;51.716;14.324;2023-02-03T03:59:42;6.10;85.40
27940;DHT22;15275;51.716;14.324;2023-02-03T04:02:11;6.10;85.50
27940;DHT22;15275;51.716;14.324;2023-02-03T04:04:38;6.10;85.50
27940;DHT22;15275;51.716;14.324;2023-02-03T04:07:06;6.10;85.50
27940;DHT22;15275;51.716;14.324;2023-02-03T04:09:32;6.10;85.50
27940;DHT22;15275;51.716;14.324;2023-02-03T04:12:01;6.10;85.50
27940;DHT22;15275;51.716;14.324;2023-02-03T04:14:35;6.10;85.50
27940;DHT22;15275;51.716;14.324;2023-02-03T04:17:03;6.20;85.50
27940;DHT22;15275;51.716;14.324;2023-02-03T04:19:29;6.20;85.50
27940;DHT22;15275;51.716;14.324;2023-02-03T04:21:56;6.20;85.60
27940;DHT22;15275;51.716;14.324;2023-02-03T04:24:22;6.20;85.50
27940;DHT22;15275;51.716;14.324;2023-02-03T04:26:48;6.20;85.20
27940;DHT22;15275;51.716;14.324;2023-02-03T04:29:14;6.20;85.60
27940;DHT22;15275;51.716;14.324;2023-02-03T04:31:40;6.30;85.70
27940;DHT22;15275;51.716;14.324;2023-02-03T04:34:06;6.30;85.90
27940;DHT22;15275;51.716;14.324;2023-02-03T04:36:32;6.30;86.00
27940;DHT22;15275;51.716;14.324;2023-02-03T04:38:58;6.30;86.00
27940;DHT22;15275;51.716;14.324;2023-02-03T04:41:23;6.30;86.10
27940;DHT22;15275;51.716;14.324;2023-02-03T04:43:49;6.30;86.20
27940;DHT22;15275;51.716;14.324;2023-02-03T04:46:15;6.30;86.30
27940;DHT22;15275;51.716;14.324;2023-02-03T04:48:42;6.40;86.30
27940;DHT22;15275;51.716;14.324;2023-02-03T04:51:08;6.40;86.40
27940;DHT22;15275;51.716;14.324;2023-02-03T04:53:34;6.40;86.30
27940;DHT22;15275;51.716;14.324;2023-02-03T04:56:00;6.40;86.40
27940;DHT22;15275;51.716;14.324;2023-02-03T04:58:26;6.40;86.50
27940;DHT22;15275;51.716;14.324;2023-02-03T05:00:52;6.40;86.60
27940;DHT22;15275;51.716;14.324;2023-02-03T05:03:19;6.50;86.70
27940;DHT22;15275;51.716;14.324;2023-02-03T05:05:45;6.50;86.90
27940;DHT22;15275;51.716;14.324;2023-02-03T05:08:11;6.50;87.10
27940;DHT22;15275;51.716;14.324;2023-02-03T05:10:37;6.60;87.20
27940;DHT22;15275;51.716;14.324;2023-02-03T05:13:03;6.60;87.30
27940;DHT22;15275;51.716;14.324;2023-02-03T05:15:28;6.70;87.40
27940;DHT22;15275;51.716;14.324;2023-02-03T05:17:54;6.70;87.50
27940;DHT22;15275;51.716;14.324;2023-02-03T05:20:20;6.80;87.60
27940;DHT22;15275;51.716;14.324;2023-02-03T05:22:47;6.80;87.70
27940;DHT22;15275;51.716;14.324;2023-02-03T05:25:13;6.90;87.90
27940;DHT22;15275;51.716;14.324;2023-02-03T05:27:40;6.90;88.00
27940;DHT22;15275;51.716;14.324;2023-02-03T05:30:07;7.00;88.10
27940;DHT22;15275;51.716;14.324;2023-02-03T05:32:34;7.10;88.20
27940;DHT22;15275;51.716;14.324;2023-02-03T05:35:00;7.20;88.30
27940;DHT22;15275;51.716;14.324;2023-02-03T05:37:26;7.20;88.40
27940;DHT22;15275;51.716;14.324;2023-02-03T05:39:52;7.30;88.30
27940;DHT22;15275;51.716;14.324;2023-02-03T05:42:18;7.40;88.40
27940;DHT22;15275;51.716;14.324;2023-02-03T05:44:43;7.40;88.60
27940;DHT22;15275;51.716;14.324;2023-02-03T05:47:09;7.50;88.70
27940;DHT22;15275;51.716;14.324;2023-02-03T05:49:35;7.60;88.80
27940;DHT22;15275;51.716;14.324;2023-02-03T05:52:01;7.70;88.80
27940;DHT22;15275;51.716;14.324;2023-02-03T05:54:27;7.80;88.70
27940;DHT22;15275;51.716;14.324;2023-02-03T05:56:52;7.90;88.70
27940;DHT22;15275;51.716;14.324;2023-02-03T05:59:18;8.00;88.50
27940;DHT22;15275;51.716;14.324;2023-02-03T06:01:44;8.00;88.40
27940;DHT22;15275;51.716;14.324;2023-02-03T06:04:10;8.10;88.30
27940;DHT22;15275;51.716;14.324;2023-02-03T06:06:36;8.20;88.30
27940;DHT22;15275;51.716;14.324;2023-02-03T06:09:05;8.20;88.40
27940;DHT22;15275;51.716;14.324;2023-02-03T06:11:32;8.30;88.50
27940;DHT22;15275;51.716;14.324;2023-02-03T06:14:00;8.40;88.50
27940;DHT22;15275;51.716;14.324;2023-02-03T06:16:27;8.40;88.50
27940;DHT22;15275;51.716;14.324;2023-02-03T06:18:55;8.50;88.50
27940;DHT22;15275;51.716;14.324;2023-02-03T06:21:25;8.50;88.50
27940;DHT22;15275;51.716;14.324;2023-02-03T06:23:51;8.60;88.40
27940;DHT22;15275;51.716;14.324;2023-02-03T06:26:17;8.70;88.40
27940;DHT22;15275;51.716;14.324;2023-02-03T06:28:43;8.70;88.30
27940;DHT22;15275;51.716;14.324;2023-02-03T06:31:09;8.80;88.30
27940;DHT22;15275;51.716;14.324;2023-02-03T06:33:34;8.80;88.10
27940;DHT22;15275;51.716;14.324;2023-02-03T06:36:00;8.90;88.10
27940;DHT22;15275;51.716;14.324;2023-02-03T06:38:26;8.90;88.00
27940;DHT22;15275;51.716;14.324;2023-02-03T06:40:52;9.00;88.00
27940;DHT22;15275;51.716;14.324;2023-02-03T06:43:18;9.00;88.00
27940;DHT22;15275;51.716;14.324;2023-02-03T06:45:44;9.10;87.90
27940;DHT22;15275;51.716;14.324;2023-02-03T06:48:12;9.10;87.90
27940;DHT22;15275;51.716;14.324;2023-02-03T06:50:38;9.10;87.80
27940;DHT22;15275;51.716;14.324;2023-02-03T06:53:04;9.20;87.80
27940;DHT22;15275;51.716;14.324;2023-02-03T06:55:30;9.20;87.80
27940;DHT22;15275;51.716;14.324;2023-02-03T06:57:55;9.20;87.70
27940;DHT22;15275;51.716;14.324;2023-02-03T07:00:21;9.20;87.70
27940;DHT22;15275;51.716;14.324;2023-02-03T07:02:55;9.20;87.70
27940;DHT22;15275;51.716;14.324;2023-02-03T07:05:22;9.30;87.70
27940;DHT22;15275;51.716;14.324;2023-02-03T07:07:50;9.30;87.10
27940;DHT22;15275;51.716;14.324;2023-02-03T07:10:16;9.30;87.70
27940;DHT22;15275;51.716;14.324;2023-02-03T07:12:42;9.30;87.80
27940;DHT22;15275;51.716;14.324;2023-02-03T07:15:09;9.40;87.80
27940;DHT22;15275;51.716;14.324;2023-02-03T07:17:36;9.40;87.80
27940;DHT22;15275;51.716;14.324;2023-02-03T07:20:03;9.40;87.80
27940;DHT22;15275;51.716;14.324;2023-02-03T07:22:29;9.40;87.80
27940;DHT22;15275;51.716;14.324;2023-02-03T07:24:55;9.40;87.80
27940;DHT22;15275;51.716;14.324;2023-02-03T07:27:21;9.50;87.80
27940;DHT22;15275;51.716;14.324;2023-02-03T07:29:47;9.50;87.80
27940;DHT22;15275;51.716;14.324;2023-02-03T07:32:13;9.50;87.70
27940;DHT22;15275;51.716;14.324;2023-02-03T07:34:39;9.50;87.80
27940;DHT22;15275;51.716;14.324;2023-02-03T07:37:05;9.60;87.80
27940;DHT22;15275;51.716;14.324;2023-02-03T07:39:31;9.60;87.70
27940;DHT22;15275;51.716;14.324;2023-02-03T07:41:57;9.60;87.80
27940;DHT22;15275;51.716;14.324;2023-02-03T07:44:23;9.60;87.70
27940;DHT22;15275;51.716;14.324;2023-02-03T07:46:49;9.70;87.70
27940;DHT22;15275;51.716;14.324;2023-02-03T07:49:15;9.70;87.70
27940;DHT22;15275;51.716;14.324;2023-02-03T07:51:41;9.70;87.70
27940;DHT22;15275;51.716;14.324;2023-02-03T07:54:07;9.70;87.70
27940;DHT22;15275;51.716;14.324;2023-02-03T07:56:32;9.70;87.60
27940;DHT22;15275;51.716;14.324;2023-02-03T07:58:58;9.70;87.70
27940;DHT22;15275;51.716;14.324;2023-02-03T08:01:25;9.70;87.70
27940;DHT22;15275;51.716;14.324;2023-02-03T08:03:51;9.80;87.80
27940;DHT22;15275;51.716;14.324;2023-02-03T08:06:17;9.70;87.70
27940;DHT22;15275;51.716;14.324;2023-02-03T08:08:43;9.80;87.70
27940;DHT22;15275;51.716;14.324;2023-02-03T08:11:09;9.80;87.80
27940;DHT22;15275;51.716;14.324;2023-02-03T08:13:35;9.80;87.70
27940;DHT22;15275;51.716;14.324;2023-02-03T08:16:01;9.80;87.60
27940;DHT22;15275;51.716;14.324;2023-02-03T08:18:27;9.80;87.50
27940;DHT22;15275;51.716;14.324;2023-02-03T08:20:53;9.90;87.60
27940;DHT22;15275;51.716;14.324;2023-02-03T08:23:19;9.90;87.60
27940;DHT22;15275;51.716;14.324;2023-02-03T08:25:50;9.90;87.70
27940;DHT22;15275;51.716;14.324;2023-02-03T08:28:17;9.90;87.70
27940;DHT22;15275;51.716;14.324;2023-02-03T08:30:42;9.90;87.70
27940;DHT22;15275;51.716;14.324;2023-02-03T08:33:08;9.90;87.80
27940;DHT22;15275;51.716;14.324;2023-02-03T08:35:34;10.00;87.60
27940;DHT22;15275;51.716;14.324;2023-02-03T08:38:00;10.00;87.60
27940;DHT22;15275;51.716;14.324;2023-02-03T08:40:26;10.00;87.50
27940;DHT22;15275;51.716;14.324;2023-02-03T08:42:52;10.00;87.60
27940;DHT22;15275;51.716;14.324;2023-02-03T08:45:18;10.00;87.60
27940;DHT22;15275;51.716;14.324;2023-02-03T08:47:44;10.10;87.50
27940;DHT22;15275;51.716;14.324;2023-02-03T08:50:10;10.10;87.60
27940;DHT22;15275;51.716;14.324;2023-02-03T08:52:36;10.10;87.60
27940;DHT22;15275;51.716;14.324;2023-02-03T08:55:02;10.10;87.50
27940;DHT22;15275;51.716;14.324;2023-02-03T08:57:32;10.20;87.40
27940;DHT22;15275;51.716;14.324;2023-02-03T09:00:00;10.20;87.20
27940;DHT22;15275;51.716;14.324;2023-02-03T09:02:26;10.20;87.20
27940;DHT22;15275;51.716;14.324;2023-02-03T09:04:52;10.20;87.30
27940;DHT22;15275;51.716;14.324;2023-02-03T09:07:18;10.20;87.20
27940;DHT22;15275;51.716;14.324;2023-02-03T09:09:44;10.20;87.30
27940;DHT22;15275;51.716;14.324;2023-02-03T09:12:10;10.30;87.10
27940;DHT22;15275;51.716;14.324;2023-02-03T09:14:37;10.30;87.10
27940;DHT22;15275;51.716;14.324;2023-02-03T09:17:04;10.30;87.20
27940;DHT22;15275;51.716;14.324;2023-02-03T09:19:30;10.30;87.20
27940;DHT22;15275;51.716;14.324;2023-02-03T09:21:56;10.30;87.20
27940;DHT22;15275;51.716;14.324;2023-02-03T09:24:22;10.30;87.20
27940;DHT22;15275;51.716;14.324;2023-02-03T09:26:48;10.30;87.20
27940;DHT22;15275;51.716;14.324;2023-02-03T09:29:14;10.30;87.10
27940;DHT22;15275;51.716;14.324;2023-02-03T09:31:40;10.30;87.40
27940;DHT22;15275;51.716;14.324;2023-02-03T09:34:07;10.30;87.30
27940;DHT22;15275;51.716;14.324;2023-02-03T09:36:33;10.40;87.30
27940;DHT22;15275;51.716;14.324;2023-02-03T09:38:59;10.40;87.10
27940;DHT22;15275;51.716;14.324;2023-02-03T09:44:24;10.40;87.30
27940;DHT22;15275;51.716;14.324;2023-02-03T09:47:03;10.40;87.10
27940;DHT22;15275;51.716;14.324;2023-02-03T09:49:43;10.40;87.20
27940;DHT22;15275;51.716;14.324;2023-02-03T09:52:19;10.40;87.20
27940;DHT22;15275;51.716;14.324;2023-02-03T09:55:23;10.40;87.30
27940;DHT22;15275;51.716;14.324;2023-02-03T10:00:40;10.40;87.10
27940;DHT22;15275;51.716;14.324;2023-02-03T10:17:38;10.40;87.00
27940;DHT22;15275;51.716;14.324;2023-02-03T10:20:16;10.40;87.20
27940;DHT22;15275;51.716;14.324;2023-02-03T10:23:11;10.40;87.20
27940;DHT22;15275;51.716;14.324;2023-02-03T10:25:46;10.40;86.80
27940;DHT22;15275;51.716;14.324;2023-02-03T10:28:25;10.40;87.20
27940;DHT22;15275;51.716;14.324;2023-02-03T10:31:08;10.40;87.20
27940;DHT22;15275;51.716;14.324;2023-02-03T10:33:41;10.40;87.30
27940;DHT22;15275;51.716;14.324;2023-02-03T10:36:19;10.40;87.50
27940;DHT22;15275;51.716;14.324;2023-02-03T10:38:56;10.40;87.20
27940;DHT22;15275;51.716;14.324;2023-02-03T10:41:28;10.40;87.40
27940;DHT22;15275;51.716;14.324;2023-02-03T10:43:55;10.40;87.50
27940;DHT22;15275;51.716;14.324;2023-02-03T10:46:36;10.40;87.60
27940;DHT22;15275;51.716;14.324;2023-02-03T10:49:03;10.30;87.60
27940;DHT22;15275;51.716;14.324;2023-02-03T10:51:36;10.30;87.70
27940;DHT22;15275;51.716;14.324;2023-02-03T10:54:03;10.30;87.80
27940;DHT22;15275;51.716;14.324;2023-02-03T10:56:35;10.30;87.90
27940;DHT22;15275;51.716;14.324;2023-02-03T10:59:01;10.30;87.80
27940;DHT22;15275;51.716;14.324;2023-02-03T11:01:40;10.30;87.90
27940;DHT22;15275;51.716;14.324;2023-02-03T11:04:27;10.40;88.10
27940;DHT22;15275;51.716;14.324;2023-02-03T11:07:03;10.40;88.00
27940;DHT22;15275;51.716;14.324;2023-02-03T11:09:34;10.40;88.00
27940;DHT22;15275;51.716;14.324;2023-02-03T11:12:16;10.40;88.00
27940;DHT22;15275;51.716;14.324;2023-02-03T11:14:45;10.40;88.00
27940;DHT22;15275;51.716;14.324;2023-02-03T11:19:49;10.40;88.20
27940;DHT22;15275;51.716;14.324;2023-02-03T11:22:34;10.40;88.10
27940;DHT22;15275;51.716;14.324;2023-02-03T11:25:04;10.50;88.00
27940;DHT22;15275;51.716;14.324;2023-02-03T11:27:41;10.50;88.10
27940;DHT22;15275;51.716;14.324;2023-02-03T11:30:34;10.50;88.10
27940;DHT22;15275;51.716;14.324;2023-02-03T11:33:00;10.50;87.90
27940;DHT22;15275;51.716;14.324;2023-02-03T11:35:29;10.50;88.10
27940;DHT22;15275;51.716;14.324;2023-02-03T11:38:00;10.50;88.10
27940;DHT22;15275;51.716;14.324;2023-02-03T11:40:31;10.50;88.10
27940;DHT22;15275;51.716;14.324;2023-02-03T11:43:15;10.50;88.00
27940;DHT22;15275;51.716;14.324;2023-02-03T11:45:44;10.50;88.20
27940;DHT22;15275;51.716;14.324;2023-02-03T11:48:42;10.60;88.30
27940;DHT22;15275;51.716;14.324;2023-02-03T11:51:27;10.60;88.20
27940;DHT22;15275;51.716;14.324;2023-02-03T11:54:04;10.60;88.50
27940;DHT22;15275;51.716;14.324;2023-02-03T11:57:39;10.60;88.50
27940;DHT22;15275;51.716;14.324;2023-02-03T12:00:17;10.60;88.30
27940;DHT22;15275;51.716;14.324;2023-02-03T12:06:32;10.70;88.60
27940;DHT22;15275;51.716;14.324;2023-02-03T12:21:44;9.60;83.40
27940;DHT22;15275;51.716;14.324;2023-02-03T12:27:18;9.20;86.00
27940;DHT22;15275;51.716;14.324;2023-02-03T12:29:58;9.10;86.20
27940;DHT22;15275;51.716;14.324;2023-02-03T12:32:35;9.00;87.60
27940;DHT22;15275;51.716;14.324;2023-02-03T12:35:22;9.00;88.20
27940;DHT22;15275;51.716;14.324;2023-02-03T12:40:39;9.00;89.10
27940;DHT22;15275;51.716;14.324;2023-02-03T12:46:09;9.20;89.90
27940;DHT22;15275;51.716;14.324;2023-02-03T12:48:51;9.20;90.10
27940;DHT22;15275;51.716;14.324;2023-02-03T12:51:49;9.30;90.20
27940;DHT22;15275;51.716;14.324;2023-02-03T12:54:24;9.40;90.30
27940;DHT22;15275;51.716;14.324;2023-02-03T12:57:06;9.50;90.30
27940;DHT22;15275;51.716;14.324;2023-02-03T13:00:07;9.60;90.30
27940;DHT22;15275;51.716;14.324;2023-02-03T13:02:54;9.70;89.80
27940;DHT22;15275;51.716;14.324;2023-02-03T13:05:27;9.80;89.30
27940;DHT22;15275;51.716;14.324;2023-02-03T13:16:50;9.90;87.80
27940;DHT22;15275;51.716;14.324;2023-02-03T13:19:21;10.00;87.60
27940;DHT22;15275;51.716;14.324;2023-02-03T13:21:50;10.00;88.10
27940;DHT22;15275;51.716;14.324;2023-02-03T13:24:17;10.00;88.10
27940;DHT22;15275;51.716;14.324;2023-02-03T13:26:56;10.00;88.10
27940;DHT22;15275;51.716;14.324;2023-02-03T13:35:13;10.20;88.00
27940;DHT22;15275;51.716;14.324;2023-02-03T13:41:23;10.40;87.10
27940;DHT22;15275;51.716;14.324;2023-02-03T13:43:53;10.50;87.60
27940;DHT22;15275;51.716;14.324;2023-02-03T13:46:33;10.60;87.60
27940;DHT22;15275;51.716;14.324;2023-02-03T13:49:01;10.60;86.70
27940;DHT22;15275;51.716;14.324;2023-02-03T13:51:37;10.70;86.60
27940;DHT22;15275;51.716;14.324;2023-02-03T13:54:15;10.70;86.10
27940;DHT22;15275;51.716;14.324;2023-02-03T13:57:05;10.80;85.60
27940;DHT22;15275;51.716;14.324;2023-02-03T13:59:47;10.80;83.80
27940;DHT22;15275;51.716;14.324;2023-02-03T14:04:54;10.80;84.60
27940;DHT22;15275;51.716;14.324;2023-02-03T14:07:31;10.80;84.50
27940;DHT22;15275;51.716;14.324;2023-02-03T14:10:22;10.80;83.80
27940;DHT22;15275;51.716;14.324;2023-02-03T14:17:56;10.80;83.30
27940;DHT22;15275;51.716;14.324;2023-02-03T14:25:31;10.80;83.20
27940;DHT22;15275;51.716;14.324;2023-02-03T14:28:06;10.60;82.90
27940;DHT22;15275;51.716;14.324;2023-02-03T14:31:00;10.40;83.40
27940;DHT22;15275;51.716;14.324;2023-02-03T14:36:51;10.00;83.40
27940;DHT22;15275;51.716;14.324;2023-02-03T14:42:16;9.80;85.60
27940;DHT22;15275;51.716;14.324;2023-02-03T14:55:08;9.60;84.50
27940;DHT22;15275;51.716;14.324;2023-02-03T14:58:00;9.60;84.40
27940;DHT22;15275;51.716;14.324;2023-02-03T15:00:34;9.50;84.90
27940;DHT22;15275;51.716;14.324;2023-02-03T15:03:18;9.50;84.60
27940;DHT22;15275;51.716;14.324;2023-02-03T15:06:02;9.50;84.50
27940;DHT22;15275;51.716;14.324;2023-02-03T15:08:30;9.40;83.40
27940;DHT22;15275;51.716;14.324;2023-02-03T15:13:50;9.30;83.20
27940;DHT22;15275;51.716;14.324;2023-02-03T15:16:19;9.30;84.60
27940;DHT22;15275;51.716;14.324;2023-02-03T15:18:53;9.30;84.40
27940;DHT22;15275;51.716;14.324;2023-02-03T15:21:27;9.20;84.30
27940;DHT22;15275;51.716;14.324;2023-02-03T15:23:53;9.20;84.50
27940;DHT22;15275;51.716;14.324;2023-02-03T15:26:24;9.20;84.30
27940;DHT22;15275;51.716;14.324;2023-02-03T15:28:55;9.20;84.40
27940;DHT22;15275;51.716;14.324;2023-02-03T15:34:11;9.10;84.40
27940;DHT22;15275;51.716;14.324;2023-02-03T15:36:51;9.10;84.30
27940;DHT22;15275;51.716;14.324;2023-02-03T15:39:43;9.10;84.30
27940;DHT22;15275;51.716;14.324;2023-02-03T15:42:38;9.10;83.70
27940;DHT22;15275;51.716;14.324;2023-02-03T15:45:27;9.10;84.10
27940;DHT22;15275;51.716;14.324;2023-02-03T15:50:47;9.10;84.30
27940;DHT22;15275;51.716;14.324;2023-02-03T15:53:21;9.20;84.40
27940;DHT22;15275;51.716;14.324;2023-02-03T15:55:53;9.20;84.40
27940;DHT22;15275;51.716;14.324;2023-02-03T15:58:24;9.20;84.30
27940;DHT22;15275;51.716;14.324;2023-02-03T16:00:59;9.20;84.00
27940;DHT22;15275;51.716;14.324;2023-02-03T16:03:38;9.20;84.30
27940;DHT22;15275;51.716;14.324;2023-02-03T16:08:51;9.30;83.20
27940;DHT22;15275;51.716;14.324;2023-02-03T16:11:33;9.30;84.20
27940;DHT22;15275;51.716;14.324;2023-02-03T16:14:08;9.40;83.20
27940;DHT22;15275;51.716;14.324;2023-02-03T16:16:41;9.40;83.90
27940;DHT22;15275;51.716;14.324;2023-02-03T16:19:16;9.50;84.30
27940;DHT22;15275;51.716;14.324;2023-02-03T16:24:36;9.50;83.90
27940;DHT22;15275;51.716;14.324;2023-02-03T16:27:29;9.50;82.70
27940;DHT22;15275;51.716;14.324;2023-02-03T16:35:55;9.60;82.10
27940;DHT22;15275;51.716;14.324;2023-02-03T16:38:44;9.60;83.60
27940;DHT22;15275;51.716;14.324;2023-02-03T16:41:30;9.60;83.60
27940;DHT22;15275;51.716;14.324;2023-02-03T16:44:15;9.50;83.20
27940;DHT22;15275;51.716;14.324;2023-02-03T16:46:59;9.50;83.40
27940;DHT22;15275;51.716;14.324;2023-02-03T16:49:44;9.50;83.60
27940;DHT22;15275;51.716;14.324;2023-02-03T16:52:28;9.50;83.60
27940;DHT22;15275;51.716;14.324;2023-02-03T16:54:54;9.50;84.00
27940;DHT22;15275;51.716;14.324;2023-02-03T16:57:20;9.50;83.90
27940;DHT22;15275;51.716;14.324;2023-02-03T16:59:45;9.50;83.40
27940;DHT22;15275;51.716;14.324;2023-02-03T17:02:11;9.50;83.60
27940;DHT22;15275;51.716;14.324;2023-02-03T17:04:37;9.50;83.60
27940;DHT22;15275;51.716;14.324;2023-02-03T17:07:03;9.60;83.30
27940;DHT22;15275;51.716;14.324;2023-02-03T17:09:30;9.60;83.80
27940;DHT22;15275;51.716;14.324;2023-02-03T17:12:00;9.60;83.80
27940;DHT22;15275;51.716;14.324;2023-02-03T17:14:27;9.70;83.80
27940;DHT22;15275;51.716;14.324;2023-02-03T17:16:53;9.70;83.80
27940;DHT22;15275;51.716;14.324;2023-02-03T17:19:19;9.70;83.90
27940;DHT22;15275;51.716;14.324;2023-02-03T17:21:45;9.80;83.90
27940;DHT22;15275;51.716;14.324;2023-02-03T17:24:12;9.80;83.80
27940;DHT22;15275;51.716;14.324;2023-02-03T17:26:39;9.80;83.80
27940;DHT22;15275;51.716;14.324;2023-02-03T17:29:05;9.80;83.50
27940;DHT22;15275;51.716;14.324;2023-02-03T17:31:31;9.90;83.30
27940;DHT22;15275;51.716;14.324;2023-02-03T17:33:57;9.90;83.50
27940;DHT22;15275;51.716;14.324;2023-02-03T17:36:24;9.90;83.40
27940;DHT22;15275;51.716;14.324;2023-02-03T17:38:54;9.90;83.40
27940;DHT22;15275;51.716;14.324;2023-02-03T17:41:22;9.90;83.30
27940;DHT22;15275;51.716;14.324;2023-02-03T17:43:49;9.90;83.50
27940;DHT22;15275;51.716;14.324;2023-02-03T17:46:19;9.90;83.20
27940;DHT22;15275;51.716;14.324;2023-02-03T17:48:46;9.90;83.10
27940;DHT22;15275;51.716;14.324;2023-02-03T17:51:15;10.00;82.80
27940;DHT22;15275;51.716;14.324;2023-02-03T17:53:46;10.00;82.90
27940;DHT22;15275;51.716;14.324;2023-02-03T17:56:19;10.00;82.40
27940;DHT22;15275;51.716;14.324;2023-02-03T17:58:46;10.00;82.50
27940;DHT22;15275;51.716;14.324;2023-02-03T18:01:17;10.00;82.30
27940;DHT22;15275;51.716;14.324;2023-02-03T18:03:48;10.10;82.40
27940;DHT22;15275;51.716;14.324;2023-02-03T18:06:17;10.10;82.50
27940;DHT22;15275;51.716;14.324;2023-02-03T18:08:45;10.10;82.40
27940;DHT22;15275;51.716;14.324;2023-02-03T18:11:12;10.10;82.00
27940;DHT22;15275;51.716;14.324;2023-02-03T18:13:40;10.10;81.80
27940;DHT22;15275;51.716;14.324;2023-02-03T18:16:09;10.10;81.60